Flight Track Log - Related Links

Times and Time Zones

All times are in EDT time to prevent confusion due to time zone crossing. See the TUS8481 flight status page for this flight to view local times or setup timezone preferences in your user account.

Time Position Orientation Groundspeed Altitude Reporting Facility
EDT Latitude Longitude Course Direction KTS MPH feet Rate Location/Type
Tue 01:19:54 AM 25.7836 -80.2742 94° East 188 216 800  Level Miami Center
Tue 01:20:54 AM 25.7806 -80.2208 94° East 181 208 3,300 1,935 Climbing Miami Center
Tue 01:22:29 AM 25.7581 -80.1094 103° East 247 284 5,800 2,078 Climbing Miami Center
Tue 01:23:27 AM 25.7389 -80.0236 104° East 257 296 8,600 2,644 Climbing Miami Center
Tue 01:24:27 AM 25.7158 -79.9378 107° East 271 312 11,000 1,820 Climbing Miami Center
Tue 01:25:29 AM 25.6525 -79.8600 132° Southeast 308 354 12,300 1,537 Climbing Miami Center
Tue 01:26:28 AM 25.5642 -79.7867 143° Southeast 343 395 14,100 2,118 Climbing Miami Center
Tue 01:27:28 AM 25.4697 -79.7083 143° Southeast 388 447 16,500 2,319 Climbing Miami Center
Tue 01:28:27 AM 25.3753 -79.6256 142° Southeast 419 482 18,700 2,168 Climbing Miami Center
Tue 01:29:27 AM 25.2744 -79.5406 143° Southeast 440 506 20,800 1,835 Climbing Miami Center
Tue 01:30:28 AM 25.1714 -79.4489 141° Southeast 463 533 22,400 1,550 Climbing Miami Center
Tue 01:31:27 AM 25.0664 -79.3594 142° Southeast 476 548 23,900 1,513 Climbing Miami Center
Tue 01:32:27 AM 24.9553 -79.2633 142° Southeast 490 564 25,400 1,750 Climbing Miami Center
Tue 01:33:27 AM 24.8378 -79.1694 144° Southeast 510 587 27,400 1,950 Climbing Miami Center
Tue 01:34:27 AM 24.7264 -79.0736 142° Southeast 510 587 29,300 1,835 Climbing Miami Center
Tue 01:35:28 AM 24.6169 -78.9800 142° Southeast 515 593 31,100 1,525 Climbing Miami Center
Tue 01:36:29 AM 24.5033 -78.8844 143° Southeast 515 593 32,400 942 Climbing Miami Center
Tue 01:37:29 AM 24.3897 -78.7892 143° Southeast 510 587 33,000 300 Climbing Miami Center
Tue 01:38:29 AM 24.2781 -78.6961 143° Southeast 518 596 33,000  Level Miami Center
Tue 01:39:27 AM 24.1600 -78.5967 142° Southeast 518 596 33,000  Level Miami Center
Tue 01:40:27 AM 24.0503 -78.5064 143° Southeast 518 596 33,000  Level Miami Center
Tue 01:42:00 AM 24.1012 -78.5239 331° Northwest  Level FlightAware Approximate
Tue 01:49:00 AM 24.8769 -78.9933 331° Northwest  Level FlightAware Approximate
Tue 01:50:00 AM 24.9875 -79.0610 331° Northwest  Level FlightAware Approximate
Tue 01:51:00 AM 25.0980 -79.1288 331° Northwest  Level FlightAware Approximate
Tue 01:52:00 AM 25.2086 -79.1967 331° Northwest  Level FlightAware Approximate
Tue 01:53:00 AM 25.3191 -79.2648 331° Northwest  Level FlightAware Approximate
Tue 01:54:00 AM 25.4296 -79.3329 331° Northwest  Level FlightAware Approximate
Tue 01:55:00 AM 25.5401 -79.4013 331° Northwest  Level FlightAware Approximate
Tue 01:56:00 AM 25.6505 -79.4697 331° Northwest  Level FlightAware Approximate
Tue 01:57:00 AM 25.7609 -79.5382 331° Northwest  Level FlightAware Approximate
Tue 01:58:00 AM 25.8709 -79.6075 330° Northwest  Level FlightAware Approximate
Tue 01:59:00 AM 25.9805 -79.6778 330° Northwest  Level FlightAware Approximate
Tue 02:00:00 AM 26.0898 -79.7487 329° Northwest  Level FlightAware Approximate
Tue 02:01:00 AM 26.1984 -79.8210 329° Northwest  Level FlightAware Approximate
Tue 02:02:00 AM 26.3069 -79.8934 329° Northwest  Level FlightAware Approximate
Tue 02:03:00 AM 26.4172 -79.9625 333° Northwest  Level FlightAware Approximate
Tue 02:04:00 AM 26.5295 -80.0275 333° Northwest  Level FlightAware Approximate
Tue 02:05:00 AM 26.6418 -80.0926 333° Northwest  Level FlightAware Approximate
Tue 02:06:00 AM 26.6181 -80.0654 145° Southeast  Level FlightAware Approximate
Tue 02:07:00 AM 26.5145 -79.9842 145° Southeast  Level FlightAware Approximate
Tue 02:08:00 AM 26.4109 -79.9031 145° Southeast  Level FlightAware Approximate
Tue 02:09:00 AM 26.3073 -79.8222 145° Southeast  Level FlightAware Approximate
Tue 02:10:00 AM 26.2036 -79.7414 145° Southeast  Level FlightAware Approximate
Tue 02:11:00 AM 26.0998 -79.6608 145° Southeast  Level FlightAware Approximate
Tue 02:12:00 AM 25.9964 -79.5798 138° Southeast  Level FlightAware Approximate
Tue 02:13:00 AM 25.8941 -79.4972 145° Southeast  Level FlightAware Approximate
Tue 02:14:00 AM 25.7907 -79.4163 145° Southeast  Level FlightAware Approximate
Tue 02:15:00 AM 25.6877 -79.3348 145° Southeast  Level FlightAware Approximate
Tue 02:16:00 AM 25.5846 -79.2535 145° Southeast  Level FlightAware Approximate
Tue 02:17:00 AM 25.4815 -79.1723 145° Southeast  Level FlightAware Approximate
Tue 02:18:00 AM 25.3784 -79.0911 145° Southeast  Level FlightAware Approximate
Tue 02:19:00 AM 25.2753 -79.0101 145° Southeast  Level FlightAware Approximate
Tue 02:20:00 AM 25.1721 -78.9292 145° Southeast  Level FlightAware Approximate
Tue 02:21:00 AM 25.0689 -78.8484 145° Southeast  Level FlightAware Approximate
Tue 02:22:00 AM 24.9656 -78.7678 145° Southeast  Level FlightAware Approximate
Tue 02:23:00 AM 24.8622 -78.6873 145° Southeast  Level FlightAware Approximate
Tue 02:24:00 AM 24.7588 -78.6071 145° Southeast  Level FlightAware Approximate
Tue 02:25:00 AM 24.6553 -78.5270 145° Southeast  Level FlightAware Approximate
Tue 02:26:00 AM 24.5518 -78.4471 145° Southeast  Level FlightAware Approximate
Tue 02:27:00 AM 24.4482 -78.3672 145° Southeast  Level FlightAware Approximate
Tue 02:28:00 AM 24.3446 -78.2875 145° Southeast  Level FlightAware Approximate
Tue 02:29:00 AM 24.2410 -78.2080 145° Southeast  Level FlightAware Approximate
Tue 02:30:00 AM 24.1373 -78.1285 145° Southeast  Level FlightAware Approximate
Tue 02:31:00 AM 24.0356 -78.0463 143° Southeast  Level FlightAware Approximate
Tue 02:32:00 AM 23.9327 -77.9657 145° Southeast  Level FlightAware Approximate
Tue 02:33:00 AM 23.8287 -77.8870 145° Southeast  Level FlightAware Approximate
Tue 02:34:00 AM 23.7246 -77.8085 145° Southeast  Level FlightAware Approximate
Tue 02:35:00 AM 23.6204 -77.7300 145° Southeast  Level FlightAware Approximate
Tue 02:36:00 AM 23.5163 -77.6517 145° Southeast  Level FlightAware Approximate
Tue 02:37:00 AM 23.4121 -77.5735 145° Southeast  Level FlightAware Approximate
Tue 02:38:00 AM 23.3078 -77.4955 145° Southeast  Level FlightAware Approximate
Tue 02:39:00 AM 23.2036 -77.4175 146° Southeast  Level FlightAware Approximate
Tue 02:40:00 AM 23.0992 -77.3397 146° Southeast  Level FlightAware Approximate
Tue 02:41:00 AM 22.9949 -77.2620 146° Southeast  Level FlightAware Approximate
Tue 02:42:00 AM 22.8905 -77.1845 146° Southeast  Level FlightAware Approximate
Tue 02:43:00 AM 22.7861 -77.1070 146° Southeast  Level FlightAware Approximate
Tue 02:44:00 AM 22.6816 -77.0297 146° Southeast  Level FlightAware Approximate
Tue 02:45:00 AM 22.5771 -76.9525 146° Southeast  Level FlightAware Approximate
Tue 02:46:00 AM 22.4725 -76.8754 146° Southeast  Level FlightAware Approximate
Tue 02:47:00 AM 22.3680 -76.7983 146° Southeast  Level FlightAware Approximate
Tue 02:48:00 AM 22.2635 -76.7213 146° Southeast  Level FlightAware Approximate
Tue 02:49:00 AM 22.1588 -76.6445 146° Southeast  Level FlightAware Approximate
Tue 02:50:00 AM 22.0542 -76.5678 146° Southeast  Level FlightAware Approximate
Tue 02:51:00 AM 21.9495 -76.4912 146° Southeast  Level FlightAware Approximate
Tue 02:52:00 AM 21.8448 -76.4147 146° Southeast  Level FlightAware Approximate
Tue 02:53:00 AM 21.7401 -76.3383 146° Southeast  Level FlightAware Approximate
Tue 02:54:00 AM 21.6353 -76.2620 146° Southeast  Level FlightAware Approximate
Tue 02:55:00 AM 21.5305 -76.1858 146° Southeast  Level FlightAware Approximate
Tue 02:56:00 AM 21.4258 -76.1095 146° Southeast  Level FlightAware Approximate
Tue 02:57:00 AM 21.3211 -76.0333 146° Southeast  Level FlightAware Approximate
Tue 02:58:00 AM 21.2164 -75.9572 146° Southeast  Level FlightAware Approximate
Tue 02:59:00 AM 21.1116 -75.8812 146° Southeast  Level FlightAware Approximate
Tue 03:00:00 AM 21.0068 -75.8053 146° Southeast  Level FlightAware Approximate
Tue 03:01:00 AM 20.9019 -75.7295 146° Southeast  Level FlightAware Approximate
Tue 03:02:00 AM 20.7970 -75.6538 146° Southeast  Level FlightAware Approximate
Tue 03:03:00 AM 20.6921 -75.5783 146° Southeast  Level FlightAware Approximate
Tue 03:04:00 AM 20.5872 -75.5028 146° Southeast  Level FlightAware Approximate
Tue 03:05:00 AM 20.4822 -75.4275 146° Southeast  Level FlightAware Approximate
Tue 03:06:00 AM 20.3771 -75.3522 146° Southeast  Level FlightAware Approximate
Tue 03:07:00 AM 20.2721 -75.2771 146° Southeast  Level FlightAware Approximate
Tue 03:08:00 AM 20.1670 -75.2020 146° Southeast  Level FlightAware Approximate
Tue 03:09:00 AM 20.0619 -75.1271 146° Southeast  Level FlightAware Approximate
Tue 03:10:00 AM 19.9568 -75.0522 146° Southeast  Level FlightAware Approximate
Tue 03:11:00 AM 19.8516 -74.9775 146° Southeast  Level FlightAware Approximate
Tue 03:12:00 AM 19.7464 -74.9028 146° Southeast  Level FlightAware Approximate
Tue 03:13:00 AM 19.6411 -74.8283 146° Southeast  Level FlightAware Approximate
Tue 03:14:00 AM 19.5359 -74.7538 146° Southeast  Level FlightAware Approximate
Tue 03:15:00 AM 19.4306 -74.6795 146° Southeast  Level FlightAware Approximate
Tue 03:16:00 AM 19.3252 -74.6052 146° Southeast  Level FlightAware Approximate
Tue 03:17:00 AM 19.2199 -74.5310 146° Southeast  Level FlightAware Approximate
Tue 03:18:00 AM 19.1145 -74.4569 146° Southeast  Level FlightAware Approximate
Tue 03:19:00 AM 19.0091 -74.3829 146° Southeast  Level FlightAware Approximate
Tue 03:20:00 AM 18.9039 -74.3086 146° Southeast  Level FlightAware Approximate
Tue 03:21:00 AM 18.7987 -74.2345 146° Southeast  Level FlightAware Approximate
Tue 03:22:00 AM 18.6934 -74.1604 146° Southeast  Level FlightAware Approximate
Tue 03:23:00 AM 18.5882 -74.0864 146° Southeast  Level FlightAware Approximate
Tue 03:24:00 AM 18.4828 -74.0125 146° Southeast  Level FlightAware Approximate
Tue 03:25:00 AM 18.3775 -73.9387 146° Southeast  Level FlightAware Approximate
Tue 03:26:00 AM 18.2721 -73.8649 146° Southeast  Level FlightAware Approximate
Tue 03:27:00 AM 18.1667 -73.7913 146° Southeast  Level FlightAware Approximate
Tue 03:28:00 AM 18.0613 -73.7178 146° Southeast  Level FlightAware Approximate
Tue 03:29:00 AM 17.9558 -73.6443 146° Southeast  Level FlightAware Approximate
Tue 03:30:00 AM 17.8503 -73.5709 146° Southeast  Level FlightAware Approximate
Tue 03:31:00 AM 17.7448 -73.4977 147° Southeast  Level FlightAware Approximate
Tue 03:32:00 AM 17.6393 -73.4245 147° Southeast  Level FlightAware Approximate
Tue 03:33:00 AM 17.5337 -73.3514 147° Southeast  Level FlightAware Approximate
Tue 03:34:00 AM 17.4281 -73.2783 147° Southeast  Level FlightAware Approximate
Tue 03:35:00 AM 17.3225 -73.2054 147° Southeast  Level FlightAware Approximate
Tue 03:36:00 AM 17.2168 -73.1325 147° Southeast  Level FlightAware Approximate
Tue 03:37:00 AM 17.1112 -73.0598 147° Southeast  Level FlightAware Approximate
Tue 03:38:00 AM 17.0054 -72.9871 147° Southeast  Level FlightAware Approximate
Tue 03:39:00 AM 16.8995 -72.9148 147° Southeast  Level FlightAware Approximate
Tue 03:40:00 AM 16.7935 -72.8427 147° Southeast  Level FlightAware Approximate
Tue 03:41:00 AM 16.6875 -72.7707 147° Southeast  Level FlightAware Approximate
Tue 03:42:00 AM 16.5814 -72.6987 147° Southeast  Level FlightAware Approximate
Tue 03:43:00 AM 16.4753 -72.6268 147° Southeast  Level FlightAware Approximate
Tue 03:44:00 AM 16.3692 -72.5550 147° Southeast  Level FlightAware Approximate
Tue 03:45:00 AM 16.2631 -72.4832 147° Southeast  Level FlightAware Approximate
Tue 03:46:00 AM 16.1570 -72.4116 147° Southeast  Level FlightAware Approximate
Tue 03:47:00 AM 16.0508 -72.3400 147° Southeast  Level FlightAware Approximate
Tue 03:48:00 AM 15.9446 -72.2685 147° Southeast  Level FlightAware Approximate
Tue 03:49:00 AM 15.8384 -72.1971 147° Southeast  Level FlightAware Approximate
Tue 03:50:00 AM 15.7322 -72.1257 147° Southeast  Level FlightAware Approximate
Tue 03:51:00 AM 15.6259 -72.0544 147° Southeast  Level FlightAware Approximate
Tue 03:52:00 AM 15.5196 -71.9832 147° Southeast  Level FlightAware Approximate
Tue 03:53:00 AM 15.4133 -71.9121 147° Southeast  Level FlightAware Approximate
Tue 03:54:00 AM 15.3070 -71.8410 147° Southeast  Level FlightAware Approximate
Tue 03:55:00 AM 15.2006 -71.7700 147° Southeast  Level FlightAware Approximate
Tue 03:56:00 AM 15.0942 -71.6991 147° Southeast  Level FlightAware Approximate
Tue 03:57:00 AM 14.9878 -71.6283 147° Southeast  Level FlightAware Approximate
Tue 03:58:00 AM 14.8814 -71.5575 147° Southeast  Level FlightAware Approximate
Tue 03:59:00 AM 14.7750 -71.4868 147° Southeast  Level FlightAware Approximate
Tue 04:00:00 AM 14.6685 -71.4161 147° Southeast  Level FlightAware Approximate
Tue 04:01:00 AM 14.5620 -71.3456 147° Southeast  Level FlightAware Approximate
Tue 04:02:00 AM 14.4555 -71.2751 147° Southeast  Level FlightAware Approximate
Tue 04:03:00 AM 14.3490 -71.2046 147° Southeast  Level FlightAware Approximate
Tue 04:04:00 AM 14.2424 -71.1343 147° Southeast  Level FlightAware Approximate
Tue 04:05:00 AM 14.1359 -71.0640 147° Southeast  Level FlightAware Approximate
Tue 04:06:00 AM 14.0293 -70.9937 147° Southeast  Level FlightAware Approximate
Tue 04:07:00 AM 13.9227 -70.9236 147° Southeast  Level FlightAware Approximate
Tue 04:08:00 AM 13.8160 -70.8535 147° Southeast  Level FlightAware Approximate
Tue 04:09:00 AM 13.7094 -70.7834 147° Southeast  Level FlightAware Approximate
Tue 04:10:00 AM 13.6027 -70.7134 147° Southeast  Level FlightAware Approximate
Tue 04:11:00 AM 13.4960 -70.6435 147° Southeast  Level FlightAware Approximate
Tue 04:12:00 AM 13.3893 -70.5737 148° Southeast  Level FlightAware Approximate
Tue 04:13:00 AM 13.2826 -70.5039 148° Southeast  Level FlightAware Approximate
Tue 04:14:00 AM 13.1759 -70.4342 148° Southeast  Level FlightAware Approximate
Tue 04:15:00 AM 13.0691 -70.3645 148° Southeast  Level FlightAware Approximate
Tue 04:16:00 AM 12.9623 -70.2949 148° Southeast  Level FlightAware Approximate
Tue 04:17:00 AM 12.8555 -70.2253 148° Southeast  Level FlightAware Approximate
Tue 04:18:00 AM 12.7487 -70.1558 148° Southeast  Level FlightAware Approximate
Tue 04:19:00 AM 12.6419 -70.0864 148° Southeast  Level FlightAware Approximate
Tue 04:20:00 AM 12.5350 -70.0170 148° Southeast  Level FlightAware Approximate
Tue 04:21:00 AM 12.4281 -69.9477 148° Southeast  Level FlightAware Approximate
Tue 04:22:00 AM 12.3212 -69.8785 148° Southeast  Level FlightAware Approximate
Tue 04:23:00 AM 12.2143 -69.8093 148° Southeast  Level FlightAware Approximate
Tue 04:24:00 AM 12.1074 -69.7402 148° Southeast  Level FlightAware Approximate
Tue 04:25:00 AM 12.0004 -69.6712 148° Southeast  Level FlightAware Approximate
Tue 04:26:00 AM 11.8934 -69.6023 148° Southeast  Level FlightAware Approximate
Tue 04:27:00 AM 11.7863 -69.5334 148° Southeast  Level FlightAware Approximate
Tue 04:28:00 AM 11.6793 -69.4646 148° Southeast  Level FlightAware Approximate
Tue 04:29:00 AM 11.5722 -69.3958 148° Southeast  Level FlightAware Approximate
Tue 04:30:00 AM 11.4651 -69.3271 148° Southeast  Level FlightAware Approximate
Tue 04:31:00 AM 11.3580 -69.2584 148° Southeast  Level FlightAware Approximate
Tue 04:32:00 AM 11.2509 -69.1898 148° Southeast  Level FlightAware Approximate
Tue 04:33:00 AM 11.1438 -69.1213 148° Southeast  Level FlightAware Approximate
Tue 04:34:00 AM 11.0366 -69.0527 148° Southeast  Level FlightAware Approximate
Tue 04:35:00 AM 10.9294 -68.9843 148° Southeast  Level FlightAware Approximate
Tue 04:36:00 AM 10.8223 -68.9159 148° Southeast  Level FlightAware Approximate
Tue 04:37:00 AM 10.7150 -68.8475 148° Southeast  Level FlightAware Approximate
Tue 04:38:00 AM 10.6078 -68.7792 148° Southeast  Level FlightAware Approximate
Tue 04:39:00 AM 10.5006 -68.7109 148° Southeast  Level FlightAware Approximate
Tue 04:40:00 AM 10.3934 -68.6427 148° Southeast  Level FlightAware Approximate
Tue 04:41:00 AM 10.2861 -68.5745 148° Southeast  Level FlightAware Approximate
Tue 04:42:00 AM 10.1787 -68.5066 148° Southeast  Level FlightAware Approximate
Tue 04:43:00 AM 10.0713 -68.4387 148° Southeast  Level FlightAware Approximate
Tue 04:44:00 AM 9.9639 -68.3708 148° Southeast  Level FlightAware Approximate
Tue 04:45:00 AM 9.8565 -68.3030 148° Southeast  Level FlightAware Approximate
Tue 04:46:00 AM 9.7491 -68.2353 148° Southeast  Level FlightAware Approximate
Tue 04:47:00 AM 9.6416 -68.1675 148° Southeast  Level FlightAware Approximate
Tue 04:48:00 AM 9.5343 -68.0996 148° Southeast  Level FlightAware Approximate
Tue 04:49:00 AM 9.4270 -68.0317 148° Southeast  Level FlightAware Approximate
Tue 04:50:00 AM 9.3196 -67.9639 148° Southeast  Level FlightAware Approximate
Tue 04:51:00 AM 9.2122 -67.8961 148° Southeast  Level FlightAware Approximate
Tue 04:52:00 AM 9.1048 -67.8284 148° Southeast  Level FlightAware Approximate
Tue 04:53:00 AM 8.9975 -67.7607 148° Southeast  Level FlightAware Approximate
Tue 04:54:00 AM 8.8901 -67.6930 148° Southeast  Level FlightAware Approximate
Tue 04:55:00 AM 8.7827 -67.6253 148° Southeast  Level FlightAware Approximate
Tue 04:56:00 AM 8.6754 -67.5577 148° Southeast  Level FlightAware Approximate
Tue 04:57:00 AM 8.5680 -67.4901 148° Southeast  Level FlightAware Approximate
Tue 04:58:00 AM 8.4605 -67.4225 148° Southeast  Level FlightAware Approximate
Tue 04:59:00 AM 8.3531 -67.3550 148° Southeast  Level FlightAware Approximate
Tue 05:00:00 AM 8.2457 -67.2875 148° Southeast  Level FlightAware Approximate
Tue 05:01:00 AM 8.1382 -67.2200 148° Southeast  Level FlightAware Approximate
Tue 05:02:00 AM 8.0308 -67.1526 148° Southeast  Level FlightAware Approximate
Tue 05:03:00 AM 7.9233 -67.0853 148° Southeast  Level FlightAware Approximate
Tue 05:04:00 AM 7.8158 -67.0179 148° Southeast  Level FlightAware Approximate
Tue 05:05:00 AM 7.7083 -66.9506 148° Southeast  Level FlightAware Approximate
Tue 05:06:00 AM 7.6008 -66.8833 148° Southeast  Level FlightAware Approximate
Tue 05:07:00 AM 7.4933 -66.8161 148° Southeast  Level FlightAware Approximate
Tue 05:08:00 AM 7.3858 -66.7489 148° Southeast  Level FlightAware Approximate
Tue 05:09:00 AM 7.2783 -66.6817 148° Southeast  Level FlightAware Approximate
Tue 05:10:00 AM 7.1707 -66.6146 148° Southeast  Level FlightAware Approximate
Tue 05:11:00 AM 7.0632 -66.5475 148° Southeast  Level FlightAware Approximate
Tue 05:12:00 AM 6.9556 -66.4804 148° Southeast  Level FlightAware Approximate
Tue 05:13:00 AM 6.8481 -66.4133 148° Southeast  Level FlightAware Approximate
Tue 05:14:00 AM 6.7405 -66.3463 148° Southeast  Level FlightAware Approximate
Tue 05:15:00 AM 6.6329 -66.2793 148° Southeast  Level FlightAware Approximate
Tue 05:16:00 AM 6.5253 -66.2124 148° Southeast  Level FlightAware Approximate
Tue 05:17:00 AM 6.4177 -66.1454 148° Southeast  Level FlightAware Approximate
Tue 05:18:00 AM 6.3101 -66.0785 148° Southeast  Level FlightAware Approximate
Tue 05:19:00 AM 6.2024 -66.0117 148° Southeast  Level FlightAware Approximate
Tue 05:20:00 AM 6.0948 -65.9448 148° Southeast  Level FlightAware Approximate
Tue 05:21:00 AM 5.9872 -65.8780 148° Southeast  Level FlightAware Approximate
Tue 05:22:00 AM 5.8795 -65.8112 148° Southeast  Level FlightAware Approximate
Tue 05:23:00 AM 5.7719 -65.7444 148° Southeast  Level FlightAware Approximate
Tue 05:24:00 AM 5.6642 -65.6777 148° Southeast  Level FlightAware Approximate
Tue 05:25:00 AM 5.5565 -65.6110 148° Southeast  Level FlightAware Approximate
Tue 05:26:00 AM 5.4489 -65.5443 148° Southeast  Level FlightAware Approximate
Tue 05:27:00 AM 5.3412 -65.4776 148° Southeast  Level FlightAware Approximate
Tue 05:28:00 AM 5.2335 -65.4110 148° Southeast  Level FlightAware Approximate
Tue 05:29:00 AM 5.1258 -65.3444 148° Southeast  Level FlightAware Approximate
Tue 05:30:00 AM 5.0181 -65.2777 148° Southeast  Level FlightAware Approximate
Tue 05:31:00 AM 4.9103 -65.2112 148° Southeast  Level FlightAware Approximate
Tue 05:32:00 AM 4.8026 -65.1446 148° Southeast  Level FlightAware Approximate
Tue 05:33:00 AM 4.6949 -65.0781 148° Southeast  Level FlightAware Approximate
Tue 05:34:00 AM 4.5872 -65.0116 148° Southeast  Level FlightAware Approximate
Tue 05:35:00 AM 4.4794 -64.9451 148° Southeast  Level FlightAware Approximate
Tue 05:36:00 AM 4.3717 -64.8786 148° Southeast  Level FlightAware Approximate
Tue 05:37:00 AM 4.2639 -64.8121 148° Southeast  Level FlightAware Approximate
Tue 05:38:00 AM 4.1562 -64.7457 148° Southeast  Level FlightAware Approximate
Tue 05:39:00 AM 4.0484 -64.6793 148° Southeast  Level FlightAware Approximate
Tue 05:40:00 AM 3.9406 -64.6128 148° Southeast  Level FlightAware Approximate
Tue 05:41:00 AM 3.8329 -64.5465 148° Southeast  Level FlightAware Approximate
Tue 05:42:00 AM 3.7251 -64.4801 148° Southeast  Level FlightAware Approximate
Tue 05:43:00 AM 3.6173 -64.4137 148° Southeast  Level FlightAware Approximate
Tue 05:44:00 AM 3.5095 -64.3474 148° Southeast  Level FlightAware Approximate
Tue 05:45:00 AM 3.4017 -64.2811 148° Southeast  Level FlightAware Approximate
Tue 05:46:00 AM 3.2939 -64.2148 148° Southeast  Level FlightAware Approximate
Tue 05:47:00 AM 3.1861 -64.1485 148° Southeast  Level FlightAware Approximate
Tue 05:48:00 AM 3.0783 -64.0822 148° Southeast  Level FlightAware Approximate
Tue 05:49:00 AM 2.9705 -64.0159 148° Southeast  Level FlightAware Approximate
Tue 05:50:00 AM 2.8627 -63.9497 148° Southeast  Level FlightAware Approximate
Tue 05:51:00 AM 2.7549 -63.8834 148° Southeast  Level FlightAware Approximate
Tue 05:52:00 AM 2.6471 -63.8172 148° Southeast  Level FlightAware Approximate
Tue 05:53:00 AM 2.5392 -63.7510 148° Southeast  Level FlightAware Approximate
Tue 05:54:00 AM 2.4314 -63.6848 148° Southeast  Level FlightAware Approximate
Tue 05:55:00 AM 2.3236 -63.6186 148° Southeast  Level FlightAware Approximate
Tue 05:56:00 AM 2.2157 -63.5524 148° Southeast  Level FlightAware Approximate
Tue 05:57:00 AM 2.1079 -63.4863 148° Southeast  Level FlightAware Approximate
Tue 05:58:00 AM 2.0001 -63.4201 148° Southeast  Level FlightAware Approximate
Tue 05:59:00 AM 1.8922 -63.3539 148° Southeast  Level FlightAware Approximate
Tue 06:00:00 AM 1.7844 -63.2878 148° Southeast  Level FlightAware Approximate
Tue 06:01:00 AM 1.6765 -63.2216 148° Southeast  Level FlightAware Approximate
Tue 06:02:00 AM 1.5687 -63.1555 148° Southeast  Level FlightAware Approximate
Tue 06:03:00 AM 1.4608 -63.0894 148° Southeast  Level FlightAware Approximate
Tue 06:04:00 AM 1.3530 -63.0233 148° Southeast  Level FlightAware Approximate
Tue 06:05:00 AM 1.2451 -62.9571 148° Southeast  Level FlightAware Approximate
Tue 06:06:00 AM 1.1372 -62.8910 148° Southeast  Level FlightAware Approximate
Tue 06:07:00 AM 1.0294 -62.8249 149° Southeast  Level FlightAware Approximate
Tue 06:08:00 AM 0.9215 -62.7588 149° Southeast  Level FlightAware Approximate
Tue 06:09:00 AM 0.8137 -62.6927 149° Southeast  Level FlightAware Approximate
Tue 06:10:00 AM 0.7058 -62.6267 149° Southeast  Level FlightAware Approximate
Tue 06:11:00 AM 0.5979 -62.5606 149° Southeast  Level FlightAware Approximate
Tue 06:12:00 AM 0.4901 -62.4945 149° Southeast  Level FlightAware Approximate
Tue 06:13:00 AM 0.3822 -62.4284 149° Southeast  Level FlightAware Approximate
Tue 06:14:00 AM 0.2743 -62.3623 149° Southeast  Level FlightAware Approximate
Tue 06:15:00 AM 0.1665 -62.2962 149° Southeast  Level FlightAware Approximate
Tue 06:16:00 AM 0.0586 -62.2301 149° Southeast  Level FlightAware Approximate
Tue 06:17:00 AM -0.0493 -62.1641 149° Southeast  Level FlightAware Approximate
Tue 06:18:00 AM -0.1571 -62.0980 149° Southeast  Level FlightAware Approximate
Tue 06:19:00 AM -0.2650 -62.0319 149° Southeast  Level FlightAware Approximate
Tue 06:20:00 AM -0.3729 -61.9658 149° Southeast  Level FlightAware Approximate
Tue 06:21:00 AM -0.4807 -61.8997 149° Southeast  Level FlightAware Approximate
Tue 06:22:00 AM -0.5886 -61.8337 149° Southeast  Level FlightAware Approximate
Tue 06:23:00 AM -0.6965 -61.7676 149° Southeast  Level FlightAware Approximate
Tue 06:24:00 AM -0.8043 -61.7015 149° Southeast  Level FlightAware Approximate
Tue 06:25:00 AM -0.9122 -61.6354 149° Southeast  Level FlightAware Approximate
Tue 06:26:00 AM -1.0200 -61.5693 149° Southeast  Level FlightAware Approximate
Tue 06:27:00 AM -1.1279 -61.5032 149° Southeast  Level FlightAware Approximate
Tue 06:28:00 AM -1.2358 -61.4371 149° Southeast  Level FlightAware Approximate
Tue 06:29:00 AM -1.3436 -61.3710 148° Southeast  Level FlightAware Approximate
Tue 06:30:00 AM -1.4515 -61.3049 148° Southeast  Level FlightAware Approximate
Tue 06:31:00 AM -1.5593 -61.2387 148° Southeast  Level FlightAware Approximate
Tue 06:32:00 AM -1.6672 -61.1726 148° Southeast  Level FlightAware Approximate
Tue 06:33:00 AM -1.7750 -61.1064 148° Southeast  Level FlightAware Approximate
Tue 06:34:00 AM -1.8829 -61.0403 148° Southeast  Level FlightAware Approximate
Tue 06:35:00 AM -1.9907 -60.9741 148° Southeast  Level FlightAware Approximate
Tue 06:36:00 AM -2.0986 -60.9080 148° Southeast  Level FlightAware Approximate
Tue 06:37:00 AM -2.2064 -60.8418 148° Southeast  Level FlightAware Approximate
Tue 06:38:00 AM -2.3142 -60.7756 148° Southeast  Level FlightAware Approximate
Tue 06:39:00 AM -2.4221 -60.7094 148° Southeast  Level FlightAware Approximate
Tue 06:40:00 AM -2.5299 -60.6432 148° Southeast  Level FlightAware Approximate
Tue 06:41:00 AM -2.6377 -60.5770 148° Southeast  Level FlightAware Approximate
Tue 06:42:00 AM -2.7455 -60.5108 148° Southeast  Level FlightAware Approximate
Tue 06:43:00 AM -2.8534 -60.4446 148° Southeast  Level FlightAware Approximate
Tue 06:44:00 AM -2.9612 -60.3783 148° Southeast  Level FlightAware Approximate
Tue 06:45:00 AM -3.0690 -60.3120 148° Southeast  Level FlightAware Approximate
Tue 06:46:00 AM -3.1768 -60.2458 148° Southeast  Level FlightAware Approximate
Tue 06:47:00 AM -3.2846 -60.1795 148° Southeast  Level FlightAware Approximate
Tue 06:48:00 AM -3.3924 -60.1132 148° Southeast  Level FlightAware Approximate
Tue 06:49:00 AM -3.5002 -60.0468 148° Southeast  Level FlightAware Approximate
Tue 06:50:00 AM -3.6080 -59.9805 148° Southeast  Level FlightAware Approximate
Tue 06:51:00 AM -3.7157 -59.9142 148° Southeast  Level FlightAware Approximate
Tue 06:52:00 AM -3.8235 -59.8478 148° Southeast  Level FlightAware Approximate
Tue 06:53:00 AM -3.9313 -59.7814 148° Southeast  Level FlightAware Approximate
Tue 06:54:00 AM -4.0391 -59.7150 148° Southeast  Level FlightAware Approximate
Tue 06:55:00 AM -4.1468 -59.6486 148° Southeast  Level FlightAware Approximate
Tue 06:56:00 AM -4.2546 -59.5821 148° Southeast  Level FlightAware Approximate
Tue 06:57:00 AM -4.3623 -59.5157 148° Southeast  Level FlightAware Approximate
Tue 06:58:00 AM -4.4701 -59.4492 148° Southeast  Level FlightAware Approximate
Tue 06:59:00 AM -4.5778 -59.3827 148° Southeast  Level FlightAware Approximate
Tue 07:00:00 AM -4.6856 -59.3162 148° Southeast  Level FlightAware Approximate
Tue 07:01:00 AM -4.7933 -59.2497 148° Southeast  Level FlightAware Approximate
Tue 07:02:00 AM -4.9010 -59.1831 148° Southeast  Level FlightAware Approximate
Tue 07:03:00 AM -5.0087 -59.1166 148° Southeast  Level FlightAware Approximate
Tue 07:04:00 AM -5.1164 -59.0499 148° Southeast  Level FlightAware Approximate
Tue 07:05:00 AM -5.2241 -58.9833 148° Southeast  Level FlightAware Approximate
Tue 07:06:00 AM -5.3318 -58.9167 148° Southeast  Level FlightAware Approximate
Tue 07:07:00 AM -5.4395 -58.8500 148° Southeast  Level FlightAware Approximate
Tue 07:08:00 AM -5.5472 -58.7833 148° Southeast  Level FlightAware Approximate
Tue 07:09:00 AM -5.6549 -58.7166 148° Southeast  Level FlightAware Approximate
Tue 07:10:00 AM -5.7625 -58.6499 148° Southeast  Level FlightAware Approximate
Tue 07:11:00 AM -5.8702 -58.5831 148° Southeast  Level FlightAware Approximate
Tue 07:12:00 AM -5.9778 -58.5163 148° Southeast  Level FlightAware Approximate
Tue 07:13:00 AM -6.0855 -58.4495 148° Southeast  Level FlightAware Approximate
Tue 07:14:00 AM -6.1931 -58.3826 148° Southeast  Level FlightAware Approximate
Tue 07:15:00 AM -6.3007 -58.3158 148° Southeast  Level FlightAware Approximate
Tue 07:16:00 AM -6.4083 -58.2489 148° Southeast  Level FlightAware Approximate
Tue 07:17:00 AM -6.5160 -58.1819 148° Southeast  Level FlightAware Approximate
Tue 07:18:00 AM -6.6235 -58.1150 148° Southeast  Level FlightAware Approximate
Tue 07:19:00 AM -6.7311 -58.0480 148° Southeast  Level FlightAware Approximate
Tue 07:20:00 AM -6.8387 -57.9810 148° Southeast  Level FlightAware Approximate
Tue 07:21:00 AM -6.9463 -57.9139 148° Southeast  Level FlightAware Approximate
Tue 07:22:00 AM -7.0539 -57.8469 148° Southeast  Level FlightAware Approximate
Tue 07:23:00 AM -7.1614 -57.7797 148° Southeast  Level FlightAware Approximate
Tue 07:24:00 AM -7.2689 -57.7126 148° Southeast  Level FlightAware Approximate
Tue 07:25:00 AM -7.3765 -57.6454 148° Southeast  Level FlightAware Approximate
Tue 07:26:00 AM -7.4840 -57.5782 148° Southeast  Level FlightAware Approximate
Tue 07:27:00 AM -7.5915 -57.5110 148° Southeast  Level FlightAware Approximate
Tue 07:28:00 AM -7.6990 -57.4437 148° Southeast  Level FlightAware Approximate
Tue 07:29:00 AM -7.8065 -57.3764 148° Southeast  Level FlightAware Approximate
Tue 07:30:00 AM -7.9140 -57.3091 148° Southeast  Level FlightAware Approximate
Tue 07:31:00 AM -8.0214 -57.2417 148° Southeast  Level FlightAware Approximate
Tue 07:32:00 AM -8.1289 -57.1743 148° Southeast  Level FlightAware Approximate
Tue 07:33:00 AM -8.2364 -57.1068 148° Southeast  Level FlightAware Approximate
Tue 07:34:00 AM -8.3438 -57.0394 148° Southeast  Level FlightAware Approximate
Tue 07:35:00 AM -8.4512 -56.9719 148° Southeast  Level FlightAware Approximate
Tue 07:36:00 AM -8.5586 -56.9043 148° Southeast  Level FlightAware Approximate
Tue 07:37:00 AM -8.6660 -56.8367 148° Southeast  Level FlightAware Approximate
Tue 07:38:00 AM -8.7734 -56.7691 148° Southeast  Level FlightAware Approximate
Tue 07:39:00 AM -8.8808 -56.7014 148° Southeast  Level FlightAware Approximate
Tue 07:40:00 AM -8.9882 -56.6337 148° Southeast  Level FlightAware Approximate
Tue 07:41:00 AM -9.0955 -56.5659 148° Southeast  Level FlightAware Approximate
Tue 07:42:00 AM -9.2029 -56.4981 148° Southeast  Level FlightAware Approximate
Tue 07:43:00 AM -9.3102 -56.4303 148° Southeast  Level FlightAware Approximate
Tue 07:44:00 AM -9.4175 -56.3624 148° Southeast  Level FlightAware Approximate
Tue 07:45:00 AM -9.5248 -56.2945 148° Southeast  Level FlightAware Approximate
Tue 07:46:00 AM -9.6321 -56.2265 148° Southeast  Level FlightAware Approximate
Tue 07:47:00 AM -9.7394 -56.1585 148° Southeast  Level FlightAware Approximate
Tue 07:48:00 AM -9.8466 -56.0905 148° Southeast  Level FlightAware Approximate
Tue 07:49:00 AM -9.9539 -56.0224 148° Southeast  Level FlightAware Approximate
Tue 07:50:00 AM -10.0611 -55.9543 148° Southeast  Level FlightAware Approximate
Tue 07:51:00 AM -10.1683 -55.8861 148° Southeast  Level FlightAware Approximate
Tue 07:52:00 AM -10.2755 -55.8178 148° Southeast  Level FlightAware Approximate
Tue 07:53:00 AM -10.3827 -55.7496 148° Southeast  Level FlightAware Approximate
Tue 07:54:00 AM -10.4899 -55.6812 148° Southeast  Level FlightAware Approximate
Tue 07:55:00 AM -10.5971 -55.6129 148° Southeast  Level FlightAware Approximate
Tue 07:56:00 AM -10.7042 -55.5444 148° Southeast  Level FlightAware Approximate
Tue 07:57:00 AM -10.8113 -55.4760 148° Southeast  Level FlightAware Approximate
Tue 07:58:00 AM -10.9185 -55.4075 148° Southeast  Level FlightAware Approximate
Tue 07:59:00 AM -11.0256 -55.3389 148° Southeast  Level FlightAware Approximate
Tue 08:00:00 AM -11.1327 -55.2703 148° Southeast  Level FlightAware Approximate
Tue 08:01:00 AM -11.2397 -55.2016 148° Southeast  Level FlightAware Approximate
Tue 08:02:00 AM -11.3468 -55.1329 148° Southeast  Level FlightAware Approximate
Tue 08:03:00 AM -11.4538 -55.0642 148° Southeast  Level FlightAware Approximate
Tue 08:04:00 AM -11.5608 -54.9953 148° Southeast  Level FlightAware Approximate
Tue 08:05:00 AM -11.6678 -54.9265 148° Southeast  Level FlightAware Approximate
Tue 08:06:00 AM -11.7748 -54.8575 148° Southeast  Level FlightAware Approximate
Tue 08:07:00 AM -11.8818 -54.7886 148° Southeast  Level FlightAware Approximate
Tue 08:08:00 AM -11.9888 -54.7195 148° Southeast  Level FlightAware Approximate
Tue 08:09:00 AM -12.0957 -54.6504 148° Southeast  Level FlightAware Approximate
Tue 08:10:00 AM -12.2026 -54.5813 148° Southeast  Level FlightAware Approximate
Tue 08:11:00 AM -12.3096 -54.5121 148° Southeast  Level FlightAware Approximate
Tue 08:12:00 AM -12.4164 -54.4428 148° Southeast  Level FlightAware Approximate
Tue 08:13:00 AM -12.5233 -54.3735 148° Southeast  Level FlightAware Approximate
Tue 08:14:00 AM -12.6302 -54.3042 148° Southeast  Level FlightAware Approximate
Tue 08:15:00 AM -12.7370 -54.2347 148° Southeast  Level FlightAware Approximate
Tue 08:16:00 AM -12.8438 -54.1652 148° Southeast  Level FlightAware Approximate
Tue 08:17:00 AM -12.9506 -54.0957 148° Southeast  Level FlightAware Approximate
Tue 08:18:00 AM -13.0574 -54.0261 148° Southeast  Level FlightAware Approximate
Tue 08:19:00 AM -13.1642 -53.9565 148° Southeast  Level FlightAware Approximate
Tue 08:20:00 AM -13.2709 -53.8867 148° Southeast  Level FlightAware Approximate
Tue 08:21:00 AM -13.3776 -53.8169 148° Southeast  Level FlightAware Approximate
Tue 08:22:00 AM -13.4843 -53.7471 148° Southeast  Level FlightAware Approximate
Tue 08:23:00 AM -13.5910 -53.6772 148° Southeast  Level FlightAware Approximate
Tue 08:24:00 AM -13.6977 -53.6072 147° Southeast  Level FlightAware Approximate
Tue 08:25:00 AM -13.8043 -53.5372 147° Southeast  Level FlightAware Approximate
Tue 08:26:00 AM -13.9110 -53.4671 147° Southeast  Level FlightAware Approximate
Tue 08:27:00 AM -14.0176 -53.3969 147° Southeast  Level FlightAware Approximate
Tue 08:28:00 AM -14.1242 -53.3267 147° Southeast  Level FlightAware Approximate
Tue 08:29:00 AM -14.2308 -53.2564 147° Southeast  Level FlightAware Approximate
Tue 08:30:00 AM -14.3373 -53.1860 147° Southeast  Level FlightAware Approximate
Tue 08:31:00 AM -14.4438 -53.1156 147° Southeast  Level FlightAware Approximate
Tue 08:32:00 AM -14.5503 -53.0451 147° Southeast  Level FlightAware Approximate
Tue 08:33:00 AM -14.6568 -52.9745 147° Southeast  Level FlightAware Approximate
Tue 08:34:00 AM -14.7633 -52.9039 147° Southeast  Level FlightAware Approximate
Tue 08:35:00 AM -14.8697 -52.8332 147° Southeast  Level FlightAware Approximate
Tue 08:36:00 AM -14.9761 -52.7624 147° Southeast  Level FlightAware Approximate
Tue 08:37:00 AM -15.0825 -52.6916 147° Southeast  Level FlightAware Approximate
Tue 08:38:00 AM -15.1889 -52.6206 147° Southeast  Level FlightAware Approximate
Tue 08:39:00 AM -15.2953 -52.5496 147° Southeast  Level FlightAware Approximate
Tue 08:40:00 AM -15.4016 -52.4786 147° Southeast  Level FlightAware Approximate
Tue 08:41:00 AM -15.5079 -52.4075 147° Southeast  Level FlightAware Approximate
Tue 08:42:00 AM -15.6142 -52.3363 147° Southeast  Level FlightAware Approximate
Tue 08:43:00 AM -15.7205 -52.2650 147° Southeast  Level FlightAware Approximate
Tue 08:44:00 AM -15.8267 -52.1936 147° Southeast  Level FlightAware Approximate
Tue 08:45:00 AM -15.9329 -52.1222 147° Southeast  Level FlightAware Approximate
Tue 08:46:00 AM -16.0391 -52.0507 147° Southeast  Level FlightAware Approximate
Tue 08:47:00 AM -16.1453 -51.9791 147° Southeast  Level FlightAware Approximate
Tue 08:48:00 AM -16.2514 -51.9075 147° Southeast  Level FlightAware Approximate
Tue 08:49:00 AM -16.3575 -51.8357 147° Southeast  Level FlightAware Approximate
Tue 08:50:00 AM -16.4636 -51.7639 147° Southeast  Level FlightAware Approximate
Tue 08:51:00 AM -16.5697 -51.6920 147° Southeast  Level FlightAware Approximate
Tue 08:52:00 AM -16.6758 -51.6201 147° Southeast  Level FlightAware Approximate
Tue 08:53:00 AM -16.7818 -51.5480 147° Southeast  Level FlightAware Approximate
Tue 08:54:00 AM -16.8878 -51.4759 147° Southeast  Level FlightAware Approximate
Tue 08:55:00 AM -16.9937 -51.4037 147° Southeast  Level FlightAware Approximate
Tue 08:56:00 AM -17.0997 -51.3314 147° Southeast  Level FlightAware Approximate
Tue 08:57:00 AM -17.2056 -51.2590 147° Southeast  Level FlightAware Approximate
Tue 08:58:00 AM -17.3115 -51.1865 147° Southeast  Level FlightAware Approximate
Tue 08:59:00 AM -17.4174 -51.1140 147° Southeast  Level FlightAware Approximate
Tue 09:00:00 AM -17.5232 -51.0414 147° Southeast  Level FlightAware Approximate
Tue 09:01:00 AM -17.6290 -50.9687 147° Southeast  Level FlightAware Approximate
Tue 09:02:00 AM -17.7348 -50.8959 147° Southeast  Level FlightAware Approximate
Tue 09:03:00 AM -17.8406 -50.8230 147° Southeast  Level FlightAware Approximate
Tue 09:04:00 AM -17.9463 -50.7500 147° Southeast  Level FlightAware Approximate
Tue 09:05:00 AM -18.0520 -50.6769 147° Southeast  Level FlightAware Approximate
Tue 09:06:00 AM -18.1577 -50.6038 147° Southeast  Level FlightAware Approximate
Tue 09:07:00 AM -18.2634 -50.5306 147° Southeast  Level FlightAware Approximate
Tue 09:08:00 AM -18.3690 -50.4573 147° Southeast  Level FlightAware Approximate
Tue 09:09:00 AM -18.4746 -50.3839 147° Southeast  Level FlightAware Approximate
Tue 09:10:00 AM -18.5802 -50.3103 147° Southeast  Level FlightAware Approximate
Tue 09:11:00 AM -18.6857 -50.2368 147° Southeast  Level FlightAware Approximate
Tue 09:12:00 AM -18.7912 -50.1631 147° Southeast  Level FlightAware Approximate
Tue 09:13:00 AM -18.8967 -50.0893 147° Southeast  Level FlightAware Approximate
Tue 09:14:00 AM -19.0021 -50.0154 146° Southeast  Level FlightAware Approximate
Tue 09:15:00 AM -19.1076 -49.9415 146° Southeast  Level FlightAware Approximate
Tue 09:16:00 AM -19.2129 -49.8674 146° Southeast  Level FlightAware Approximate
Tue 09:17:00 AM -19.3183 -49.7933 146° Southeast  Level FlightAware Approximate
Tue 09:18:00 AM -19.4236 -49.7190 146° Southeast  Level FlightAware Approximate
Tue 09:19:00 AM -19.5289 -49.6446 146° Southeast  Level FlightAware Approximate
Tue 09:20:00 AM -19.6342 -49.5702 146° Southeast  Level FlightAware Approximate
Tue 09:21:00 AM -19.7395 -49.4957 146° Southeast  Level FlightAware Approximate
Tue 09:22:00 AM -19.8447 -49.4210 146° Southeast  Level FlightAware Approximate
Tue 09:23:00 AM -19.9498 -49.3463 146° Southeast  Level FlightAware Approximate
Tue 09:24:00 AM -20.0550 -49.2715 146° Southeast  Level FlightAware Approximate
Tue 09:25:00 AM -20.1601 -49.1965 146° Southeast  Level FlightAware Approximate
Tue 09:26:00 AM -20.2652 -49.1215 146° Southeast  Level FlightAware Approximate
Tue 09:27:00 AM -20.3703 -49.0463 146° Southeast  Level FlightAware Approximate
Tue 09:28:00 AM -20.4753 -48.9711 146° Southeast  Level FlightAware Approximate
Tue 09:29:00 AM -20.5803 -48.8957 146° Southeast  Level FlightAware Approximate
Tue 09:30:00 AM -20.6852 -48.8203 146° Southeast  Level FlightAware Approximate
Tue 09:31:00 AM -20.7902 -48.7448 146° Southeast  Level FlightAware Approximate
Tue 09:32:00 AM -20.8951 -48.6691 146° Southeast  Level FlightAware Approximate
Tue 09:33:00 AM -20.9999 -48.5933 146° Southeast  Level FlightAware Approximate
Tue 09:34:00 AM -21.1047 -48.5175 146° Southeast  Level FlightAware Approximate
Tue 09:35:00 AM -21.2095 -48.4415 146° Southeast  Level FlightAware Approximate
Tue 09:36:00 AM -21.3145 -48.3658 146° Southeast  Level FlightAware Approximate
Tue 09:37:00 AM -21.4199 -48.2906 146° Southeast  Level FlightAware Approximate
Tue 09:38:00 AM -21.5248 -48.2147 145° Southeast  Level FlightAware Approximate
Tue 09:39:00 AM -21.6278 -48.1358 144° Southeast  Level FlightAware Approximate
Tue 09:40:00 AM -21.7305 -48.0563 145° Southeast  Level FlightAware Approximate
Tue 09:41:00 AM -21.8343 -47.9784 145° Southeast  Level FlightAware Approximate
Tue 09:42:00 AM -21.9395 -47.9027 146° Southeast  Level FlightAware Approximate
Tue 09:43:00 AM -22.0450 -47.8274 147° Southeast  Level FlightAware Approximate
Tue 09:44:00 AM -22.1500 -47.7512 146° Southeast  Level FlightAware Approximate
Tue 09:45:00 AM -22.2546 -47.6745 146° Southeast  Level FlightAware Approximate
Tue 09:46:00 AM -22.3591 -47.5974 145° Southeast  Level FlightAware Approximate
Tue 09:47:00 AM -22.4630 -47.5194 145° Southeast  Level FlightAware Approximate
Tue 09:48:00 AM -22.5680 -47.4430 146° Southeast  Level FlightAware Approximate
Tue 09:49:00 AM -22.6704 -47.3630 137° Southeast  Level FlightAware Approximate
Tue 09:50:00 AM -22.7761 -47.2882 148° Southeast  Level FlightAware Approximate
Tue 09:51:00 AM -22.8796 -47.2112 145° Southeast  Level FlightAware Approximate
Tue 09:52:00 AM -22.9879 -47.1406 151° Southeast  Level FlightAware Approximate
Tue 09:53:00 AM -23.0000 -47.1333 151° Southeast  Level FlightAware Approximate
Tue 09:54:00 AM -23.0082 -47.1347 151° Southeast  Level Estimated
Tue 09:55:00 AM -23.0082 -47.1347 151° Southeast  Level Estimated
Tue 09:56:00 AM -23.0082 -47.1347 151° Southeast  Level Estimated
Tue 09:57:00 AM -23.0082 -47.1347 151° Southeast  Level Estimated
Tue 09:58:00 AM -23.0082 -47.1347 151° Southeast  Level Estimated
Tue 09:59:00 AM -23.0082 -47.1347 151° Southeast  Level Estimated
Tue 10:00:00 AM -23.0082 -47.1347 151° Southeast  Level Estimated
Tue 10:01:00 AM -23.0082 -47.1347 151° Southeast  Level Estimated
Tue 10:02:00 AM -23.0082 -47.1347 151° Southeast  Level Estimated
Tue 10:03:00 AM -23.0082 -47.1347 151° Southeast  Level Estimated
Tue 10:04:00 AM -23.0082 -47.1347 151° Southeast  Level Estimated
Tue 10:05:00 AM -23.0082 -47.1347 151° Southeast  Level Estimated

Login

Don't have an account? Register now (free) for customized features, flight alerts, and more!